Time;durP1;ratioP1;P1;durP2;ratioP2;P2;SDS_P1;SDS_P2;PMS_P1;PMS_P2;Temp;Humidity;BMP_temperature;BMP_pressure;BME280_temperature;BME280_humidity;BME280_pressure;Samples;Min_cycle;Max_cycle;Signal;HPM_P1;HPM_P2
2023/01/22 00:01:55;;;;;;;;;;;;;;;;;;4996978;28;19957;-70
2023/01/22 00:04:20;;;;;;;;;;;;;;;;;;4996362;28;19959;-70
2023/01/22 00:06:46;;;;;;;;;;;;;;;;;;4996328;28;19951;-71
2023/01/22 00:09:14;;;;;;;;;;;;;;;;;;4996606;28;20039;-68
2023/01/22 00:11:40;;;;;;;;;;;;;;;;;;4996260;28;20102;-70
2023/01/22 00:14:06;;;;;;;;;;;;;;;;;;4996476;28;19985;-70
2023/01/22 00:16:32;;;;;;;;;;;;;;;;;;4996060;28;20007;-71
2023/01/22 00:18:58;;;;;;;;;;;;;;;;;;4994771;28;19958;-71
2023/01/22 00:21:23;;;;;;;;;;;;;;;;;;4996592;28;19996;-69
2023/01/22 00:23:49;;;;;;;;;;;;;;;;;;4995655;28;19949;-70
2023/01/22 00:26:15;;;;;;;;;;;;;;;;;;4995513;28;20326;-70
2023/01/22 00:28:46;;;;;;;;;;;;;;;;;;4995110;28;21427;-70
2023/01/22 00:31:12;;;;;;;;;;;;;;;;;;4995836;28;19958;-68
2023/01/22 00:33:38;;;;;;;;;;;;;;;;;;4996065;28;19950;-70
2023/01/22 00:36:04;;;;;;;;;;;;;;;;;;4995950;28;19968;-70
2023/01/22 00:38:29;;;;;;;;;;;;;;;;;;4996237;28;19952;-68
2023/01/22 00:40:55;;;;;;;;;;;;;;;;;;4995652;28;20005;-71
2023/01/22 00:43:21;;;;;;;;;;;;;;;;;;4995607;28;19953;-70
2023/01/22 00:45:47;;;;;;;;;;;;;;;;;;4996096;28;19953;-70
2023/01/22 00:48:13;;;;;;;;;;;;;;;;;;4995511;28;19971;-70
2023/01/22 00:50:39;;;;;;;;;;;;;;;;;;4995431;28;19980;-69
2023/01/22 00:53:05;;;;;;;;;;;;;;;;;;4995434;28;20007;-71
2023/01/22 00:55:31;;;;;;;;;;;;;;;;;;4995915;28;19973;-68
2023/01/22 00:57:57;;;;;;;;;;;;;;;;;;4995334;28;19959;-70
2023/01/22 01:00:22;;;;;;;;;;;;;;;;;;4995262;28;19953;-71
2023/01/22 01:05:33;;;;;;;;;;;;;;;;;;4994962;28;20356;-70
2023/01/22 01:07:59;;;;;;;;;;;;;;;;;;4995151;28;19964;-71
2023/01/22 01:10:25;;;;;;;;;;;;;;;;;;4995426;28;19993;-70
2023/01/22 01:12:50;;;;;;;;;;;;;;;;;;4995083;28;20431;-71
2023/01/22 01:15:16;;;;;;;;;;;;;;;;;;4994967;28;19969;-69
2023/01/22 01:17:42;;;;;;;;;;;;;;;;;;4995565;28;20346;-69
2023/01/22 01:20:08;;;;;;;;;;;;;;;;;;4993660;28;20012;-70
2023/01/22 01:22:34;;;;;;;;;;;;;;;;;;4995465;28;19951;-70
2023/01/22 01:25:00;;;;;;;;;;;;;;;;;;4994841;28;19987;-70
2023/01/22 01:27:28;;;;;;;;;;;;;;;;;;4994836;28;19952;-70
2023/01/22 01:29:53;;;;;;;;;;;;;;;;;;4994773;28;19951;-71
2023/01/22 01:32:19;;;;;;;;;;;;;;;;;;4994727;28;19961;-70
2023/01/22 01:34:48;;;;;;;;;;;;;;;;;;4994646;28;19971;-70
2023/01/22 01:37:14;;;;;;;;;;;;;;;;;;4993109;28;20334;-70
2023/01/22 01:39:40;;;;;;;;;;;;;;;;;;4994711;28;19946;-69
2023/01/22 01:42:05;;;;;;;;;;;;;;;;;;4994672;28;19963;-69
2023/01/22 01:44:31;;;;;;;;;;;;;;;;;;4995152;28;19953;-71
2023/01/22 01:46:59;;;;;;;;;;;;;;;;;;4994467;28;19973;-70
2023/01/22 01:49:26;;;;;;;;;;;;;;;;;;4994338;28;20084;-70
2023/01/22 01:51:51;;;;;;;;;;;;;;;;;;4994830;28;20320;-70
2023/01/22 01:54:17;;;;;;;;;;;;;;;;;;4994482;28;19951;-70
2023/01/22 01:56:43;;;;;;;;;;;;;;;;;;4994397;28;19973;-70
2023/01/22 01:59:09;;;;;;;;;;;;;;;;;;4994658;28;20047;-71
2023/01/22 02:01:35;;;;;;;;;;;;;;;;;;4994395;28;19956;-70
2023/01/22 02:04:01;;;;;;;;;;;;;;;;;;4994354;28;20047;-68
2023/01/22 02:06:27;;;;;;;;;;;;;;;;;;4994321;28;19978;-70
2023/01/22 02:08:53;;;;;;;;;;;;;;;;;;4994594;28;19962;-69
2023/01/22 02:11:19;;;;;;;;;;;;;;;;;;4994329;28;19953;-70
2023/01/22 02:13:45;;;;;;;;;;;;;;;;;;4994830;28;20294;-70
2023/01/22 02:16:11;;;;;;;;;;;;;;;;;;4994242;28;20018;-71
2023/01/22 02:18:37;;;;;;;;;;;;;;;;;;4994748;28;20405;-69
2023/01/22 02:21:03;;;;;;;;;;;;;;;;;;4994511;28;19953;-70
2023/01/22 02:23:30;;;;;;;;;;;;;;;;;;4994769;28;19972;-70
2023/01/22 02:25:56;;;;;;;;;;;;;;;;;;4992924;28;20008;-70
2023/01/22 02:28:22;;;;;;;;;;;;;;;;;;4994153;28;19955;-71
2023/01/22 02:30:47;;;;;;;;;;;;;;;;;;4994135;28;19951;-69
2023/01/22 02:33:13;;;;;;;;;;;;;;;;;;4994372;28;19960;-70
2023/01/22 02:35:39;;;;;;;;;;;;;;;;;;4994286;28;20404;-70
2023/01/22 02:38:05;;;;;;;;;;;;;;;;;;4994597;28;19961;-70
2023/01/22 02:40:32;;;;;;;;;;;;;;;;;;4992734;28;20323;-70
2023/01/22 02:42:58;;;;;;;;;;;;;;;;;;4994039;28;19947;-71
2023/01/22 02:45:24;;;;;;;;;;;;;;;;;;4993997;28;20328;-69
2023/01/22 02:47:50;;;;;;;;;;;;;;;;;;4994851;28;19969;-70
2023/01/22 02:50:16;;;;;;;;;;;;;;;;;;4997651;28;20556;-69
2023/01/22 02:52:42;;;;;;;;;;;;;;;;;;4997706;28;20168;-69
2023/01/22 02:55:08;;;;;;;;;;;;;;;;;;4997585;28;19972;-70
2023/01/22 02:57:33;;;;;;;;;;;;;;;;;;4997618;28;20422;-69
2023/01/22 02:59:59;;;;;;;;;;;;;;;;;;4997551;28;19954;-70
2023/01/22 03:02:25;;;;;;;;;;;;;;;;;;4998079;28;20494;-69
2023/01/22 03:05:02;;;;;;;;;;;;;;;;;;4997768;28;19951;-69
2023/01/22 03:07:40;;;;;;;;;;;;;;;;;;4995856;28;20399;-69
2023/01/22 03:10:06;;;;;;;;;;;;;;;;;;4997994;28;20372;-69
2023/01/22 03:23:31;;;;;;;;;;;;;;;;;;4997159;28;20424;-71
2023/01/22 03:25:57;;;;;;;;;;;;;;;;;;4997388;28;20051;-69
2023/01/22 03:28:23;;;;;;;;;;;;;;;;;;4997054;28;19997;-70
2023/01/22 03:30:49;;;;;;;;;;;;;;;;;;4997299;28;20033;-70
2023/01/22 03:33:15;;;;;;;;;;;;;;;;;;4996982;28;20321;-70
2023/01/22 03:35:41;;;;;;;;;;;;;;;;;;4996893;28;19978;-70
2023/01/22 03:38:06;;;;;;;;;;;;;;;;;;4997158;28;20024;-68
2023/01/22 03:40:32;;;;;;;;;;;;;;;;;;4996835;28;19984;-69
2023/01/22 03:42:58;;;;;;;;;;;;;;;;;;4997068;28;19947;-68
2023/01/22 03:45:24;;;;;;;;;;;;;;;;;;4997031;28;19954;-69
2023/01/22 03:47:50;;;;;;;;;;;;;;;;;;4995380;28;20022;-71
2023/01/22 03:50:16;;;;;;;;;;;;;;;;;;4996501;28;19989;-68
2023/01/22 03:52:42;;;;;;;;;;;;;;;;;;4996900;28;19954;-69
2023/01/22 03:55:08;;;;;;;;;;;;;;;;;;4996771;28;20107;-69
2023/01/22 03:57:33;;;;;;;;;;;;;;;;;;4997115;28;19958;-71
2023/01/22 04:00:00;;;;;;;;;;;;;;;;;;4996210;28;20417;-70
2023/01/22 04:02:26;;;;;;;;;;;;;;;;;;4995153;28;20431;-69
2023/01/22 04:04:52;;;;;;;;;;;;;;;;;;4996973;28;19964;-69
2023/01/22 04:07:18;;;;;;;;;;;;;;;;;;4996632;28;19947;-69
2023/01/22 04:09:44;;;;;;;;;;;;;;;;;;4996579;28;19957;-69
2023/01/22 04:12:10;;;;;;;;;;;;;;;;;;4996267;28;19958;-70
2023/01/22 04:14:36;;;;;;;;;;;;;;;;;;4996421;28;20323;-69
2023/01/22 04:17:02;;;;;;;;;;;;;;;;;;4996137;28;19986;-69
2023/01/22 04:19:28;;;;;;;;;;;;;;;;;;4996130;28;20419;-69
2023/01/22 04:21:53;;;;;;;;;;;;;;;;;;4996077;28;19950;-71
2023/01/22 04:24:19;;;;;;;;;;;;;;;;;;4996550;28;20398;-69
2023/01/22 04:26:45;;;;;;;;;;;;;;;;;;4995992;28;19960;-69
2023/01/22 04:29:11;;;;;;;;;;;;;;;;;;4995949;28;20325;-69
2023/01/22 04:31:37;;;;;;;;;;;;;;;;;;4995864;28;19953;-70
2023/01/22 04:34:03;;;;;;;;;;;;;;;;;;4996123;28;19990;-69
2023/01/22 04:36:29;;;;;;;;;;;;;;;;;;4995722;28;20474;-70
2023/01/22 04:38:55;;;;;;;;;;;;;;;;;;4995716;28;19953;-70
2023/01/22 04:41:21;;;;;;;;;;;;;;;;;;4995721;28;20331;-71
2023/01/22 04:43:46;;;;;;;;;;;;;;;;;;4995661;28;20004;-69
2023/01/22 04:46:12;;;;;;;;;;;;;;;;;;4995846;28;20379;-70
2023/01/22 04:48:38;;;;;;;;;;;;;;;;;;4995477;28;19968;-70
2023/01/22 04:51:04;;;;;;;;;;;;;;;;;;4995381;28;19994;-70
2023/01/22 04:53:30;;;;;;;;;;;;;;;;;;4995688;28;20048;-69
2023/01/22 04:55:56;;;;;;;;;;;;;;;;;;4995345;28;19995;-70
2023/01/22 04:58:22;;;;;;;;;;;;;;;;;;4995654;28;19953;-70
2023/01/22 05:00:48;;;;;;;;;;;;;;;;;;4995579;28;20432;-69
2023/01/22 05:03:14;;;;;;;;;;;;;;;;;;4995316;28;19958;-70
2023/01/22 05:05:39;;;;;;;;;;;;;;;;;;4995806;28;20290;-69
2023/01/22 05:08:05;;;;;;;;;;;;;;;;;;4995160;28;19957;-69
2023/01/22 05:10:31;;;;;;;;;;;;;;;;;;4994559;28;19957;-69
2023/01/22 05:12:57;;;;;;;;;;;;;;;;;;4995681;28;20441;-70
2023/01/22 05:15:23;;;;;;;;;;;;;;;;;;4995256;28;20071;-70
2023/01/22 05:17:49;;;;;;;;;;;;;;;;;;4995059;28;19953;-69
2023/01/22 05:20:15;;;;;;;;;;;;;;;;;;4995280;28;20076;-70
2023/01/22 05:22:41;;;;;;;;;;;;;;;;;;4995243;28;20420;-69
2023/01/22 05:25:07;;;;;;;;;;;;;;;;;;4994914;28;19947;-70
2023/01/22 05:27:32;;;;;;;;;;;;;;;;;;4994905;28;19960;-70
2023/01/22 05:29:58;;;;;;;;;;;;;;;;;;4995097;28;19953;-69
2023/01/22 05:32:24;;;;;;;;;;;;;;;;;;4995077;28;19996;-69
2023/01/22 05:34:50;;;;;;;;;;;;;;;;;;4994696;28;19996;-69
2023/01/22 05:37:16;;;;;;;;;;;;;;;;;;4994718;28;19954;-70
2023/01/22 05:39:42;;;;;;;;;;;;;;;;;;4994961;28;19975;-69
2023/01/22 05:42:08;;;;;;;;;;;;;;;;;;4994923;28;19956;-69
2023/01/22 05:44:34;;;;;;;;;;;;;;;;;;4994639;28;20055;-70
2023/01/22 05:47:00;;;;;;;;;;;;;;;;;;4993428;28;19973;-69
2023/01/22 05:49:26;;;;;;;;;;;;;;;;;;4994402;28;20043;-70
2023/01/22 05:51:52;;;;;;;;;;;;;;;;;;4994857;28;19953;-69
2023/01/22 05:54:17;;;;;;;;;;;;;;;;;;4994462;28;19955;-70
2023/01/22 05:56:43;;;;;;;;;;;;;;;;;;4993154;28;19976;-69
2023/01/22 05:59:09;;;;;;;;;;;;;;;;;;4994416;28;20365;-69
2023/01/22 06:01:35;;;;;;;;;;;;;;;;;;4994436;28;19955;-69
2023/01/22 06:04:01;;;;;;;;;;;;;;;;;;4994665;28;20043;-71
2023/01/22 06:06:27;;;;;;;;;;;;;;;;;;4994328;28;19954;-69
2023/01/22 06:08:53;;;;;;;;;;;;;;;;;;4994322;28;19971;-68
2023/01/22 06:11:19;;;;;;;;;;;;;;;;;;4994848;28;19953;-71
2023/01/22 06:13:45;;;;;;;;;;;;;;;;;;4994320;28;19959;-70
2023/01/22 06:16:10;;;;;;;;;;;;;;;;;;4994747;28;20019;-70
2023/01/22 06:18:36;;;;;;;;;;;;;;;;;;4994536;28;20039;-68
2023/01/22 06:21:02;;;;;;;;;;;;;;;;;;4994850;28;20310;-69
2023/01/22 06:23:28;;;;;;;;;;;;;;;;;;4997954;28;19955;-68
2023/01/22 06:25:54;;;;;;;;;;;;;;;;;;4998492;28;19953;-70
2023/01/22 06:28:20;;;;;;;;;;;;;;;;;;4996933;28;19957;-69
2023/01/22 06:30:46;;;;;;;;;;;;;;;;;;4998402;28;19985;-70
2023/01/22 06:33:12;;;;;;;;;;;;;;;;;;4998391;28;19949;-69
2023/01/22 06:35:38;;;;;;;;;;;;;;;;;;4998530;28;19973;-69
2023/01/22 06:38:03;;;;;;;;;;;;;;;;;;4998008;28;20468;-70
2023/01/22 06:40:29;;;;;;;;;;;;;;;;;;4997978;28;19953;-69
2023/01/22 06:42:56;;;;;;;;;;;;;;;;;;4998475;28;20361;-70
2023/01/22 06:45:22;;;;;;;;;;;;;;;;;;4998131;28;19950;-70
2023/01/22 06:47:48;;;;;;;;;;;;;;;;;;4997768;28;19961;-69
2023/01/22 06:50:14;;;;;;;;;;;;;;;;;;4997806;28;20417;-69
2023/01/22 06:52:40;;;;;;;;;;;;;;;;;;4997723;28;20297;-70
2023/01/22 06:55:06;;;;;;;;;;;;;;;;;;4997634;28;19976;-70
2023/01/22 06:57:31;;;;;;;;;;;;;;;;;;4997902;28;19990;-70
2023/01/22 06:59:57;;;;;;;;;;;;;;;;;;4997594;28;19959;-70
2023/01/22 07:02:23;;;;;;;;;;;;;;;;;;4998064;28;20051;-69
2023/01/22 07:04:49;;;;;;;;;;;;;;;;;;4997509;28;20428;-69
2023/01/22 07:07:15;;;;;;;;;;;;;;;;;;4997494;28;19958;-70
2023/01/22 07:09:41;;;;;;;;;;;;;;;;;;4996128;28;19964;-70
2023/01/22 07:12:07;;;;;;;;;;;;;;;;;;4997457;28;19960;-69
2023/01/22 07:14:33;;;;;;;;;;;;;;;;;;4997669;28;19955;-69
2023/01/22 07:16:59;;;;;;;;;;;;;;;;;;4997261;28;19977;-69
2023/01/22 07:19:25;;;;;;;;;;;;;;;;;;4997295;28;19984;-70
2023/01/22 07:21:51;;;;;;;;;;;;;;;;;;4997199;28;19946;-70
2023/01/22 07:24:17;;;;;;;;;;;;;;;;;;4997428;28;19960;-69
2023/01/22 07:26:42;;;;;;;;;;;;;;;;;;4997365;28;20087;-69
2023/01/22 07:29:08;;;;;;;;;;;;;;;;;;4997066;28;19953;-70
2023/01/22 07:31:34;;;;;;;;;;;;;;;;;;4997328;28;19955;-69
2023/01/22 07:34:00;;;;;;;;;;;;;;;;;;4996645;28;20336;-69
2023/01/22 07:36:26;;;;;;;;;;;;;;;;;;4997456;28;19979;-69
2023/01/22 07:38:52;;;;;;;;;;;;;;;;;;4996939;28;19946;-69
2023/01/22 07:41:18;;;;;;;;;;;;;;;;;;4997138;28;19971;-71
2023/01/22 07:43:44;;;;;;;;;;;;;;;;;;4996839;28;20038;-69
2023/01/22 07:46:10;;;;;;;;;;;;;;;;;;4996792;28;19958;-70
2023/01/22 07:48:37;;;;;;;;;;;;;;;;;;4996643;28;19971;-71
2023/01/22 07:51:02;;;;;;;;;;;;;;;;;;4996294;28;20081;-68
2023/01/22 07:53:28;;;;;;;;;;;;;;;;;;4996919;28;19986;-70
2023/01/22 07:55:54;;;;;;;;;;;;;;;;;;4996516;28;20375;-71
2023/01/22 07:58:20;;;;;;;;;;;;;;;;;;4996862;28;19947;-70
2023/01/22 08:00:46;;;;;;;;;;;;;;;;;;4996516;28;20006;-69
2023/01/22 08:03:15;;;;;;;;;;;;;;;;;;4996422;28;20003;-68
2023/01/22 08:05:41;;;;;;;;;;;;;;;;;;4996380;28;20045;-69
2023/01/22 08:08:07;;;;;;;;;;;;;;;;;;4996626;28;20044;-69
2023/01/22 08:10:33;;;;;;;;;;;;;;;;;;4996299;28;20406;-70
2023/01/22 08:12:58;;;;;;;;;;;;;;;;;;4996559;28;19953;-69
2023/01/22 08:15:24;;;;;;;;;;;;;;;;;;4996141;28;19973;-69
2023/01/22 08:17:50;;;;;;;;;;;;;;;;;;4996188;28;19997;-68
2023/01/22 08:20:16;;;;;;;;;;;;;;;;;;4996440;28;19954;-70
2023/01/22 08:22:42;;;;;;;;;;;;;;;;;;4996070;28;19948;-69
2023/01/22 08:25:08;;;;;;;;;;;;;;;;;;4996066;28;20460;-70
2023/01/22 08:27:34;;;;;;;;;;;;;;;;;;4996527;28;19957;-70
2023/01/22 08:30:00;;;;;;;;;;;;;;;;;;4995959;28;19958;-68
2023/01/22 08:32:26;;;;;;;;;;;;;;;;;;4995863;28;19953;-69
2023/01/22 08:34:53;;;;;;;;;;;;;;;;;;4996384;28;20359;-70
2023/01/22 08:37:19;;;;;;;;;;;;;;;;;;4996074;28;20036;-69
2023/01/22 08:39:44;;;;;;;;;;;;;;;;;;4996342;28;20032;-69
2023/01/22 08:42:10;;;;;;;;;;;;;;;;;;4995740;28;20315;-70
2023/01/22 08:44:36;;;;;;;;;;;;;;;;;;4995927;28;19953;-70
2023/01/22 08:47:02;;;;;;;;;;;;;;;;;;4994925;28;19969;-71
2023/01/22 08:49:29;;;;;;;;;;;;;;;;;;4995784;28;20452;-68
2023/01/22 08:51:55;;;;;;;;;;;;;;;;;;4994242;28;19991;-69
2023/01/22 08:54:21;;;;;;;;;;;;;;;;;;4995766;28;19960;-70
2023/01/22 08:56:47;;;;;;;;;;;;;;;;;;4995315;28;20086;-70
2023/01/22 08:59:13;;;;;;;;;;;;;;;;;;4995947;28;20422;-70
2023/01/22 09:01:39;;;;;;;;;;;;;;;;;;4995308;28;20425;-71
2023/01/22 09:04:05;;;;;;;;;;;;;;;;;;4995840;28;19951;-69
2023/01/22 09:06:31;;;;;;;;;;;;;;;;;;4995268;28;19996;-71
2023/01/22 09:08:58;;;;;;;;;;;;;;;;;;4995243;28;20447;-70
2023/01/22 09:11:24;;;;;;;;;;;;;;;;;;4993870;28;20327;-70
2023/01/22 09:13:53;;;;;;;;;;;;;;;;;;4995686;28;19950;-69
2023/01/22 09:16:19;;;;;;;;;;;;;;;;;;4994975;28;20405;-69
2023/01/22 09:18:45;;;;;;;;;;;;;;;;;;4995622;28;20054;-70
2023/01/22 09:21:11;;;;;;;;;;;;;;;;;;4995053;28;19953;-70
2023/01/22 09:23:37;;;;;;;;;;;;;;;;;;4995501;28;19953;-70
2023/01/22 09:26:03;;;;;;;;;;;;;;;;;;4995229;28;19960;-70
2023/01/22 09:28:29;;;;;;;;;;;;;;;;;;4995149;28;20404;-69
2023/01/22 09:30:54;;;;;;;;;;;;;;;;;;4994831;28;20413;-70
2023/01/22 09:33:20;;;;;;;;;;;;;;;;;;4994812;28;19952;-69
2023/01/22 09:35:46;;;;;;;;;;;;;;;;;;4995285;28;20316;-71
2023/01/22 09:38:12;;;;;;;;;;;;;;;;;;4995006;28;20022;-72
2023/01/22 09:40:38;;;;;;;;;;;;;;;;;;4995249;28;20015;-71
2023/01/22 09:43:04;;;;;;;;;;;;;;;;;;4994660;28;20054;-70
2023/01/22 09:45:30;;;;;;;;;;;;;;;;;;4994616;28;19950;-71
2023/01/22 09:47:58;;;;;;;;;;;;;;;;;;4994499;28;19972;-71
2023/01/22 09:50:24;;;;;;;;;;;;;;;;;;4994398;28;20000;-70
2023/01/22 09:52:50;;;;;;;;;;;;;;;;;;4995135;28;20393;-71
2023/01/22 09:55:16;;;;;;;;;;;;;;;;;;4994722;28;19968;-70
2023/01/22 09:57:42;;;;;;;;;;;;;;;;;;4994784;28;20349;-70
2023/01/22 10:00:07;;;;;;;;;;;;;;;;;;4994676;28;20042;-70
2023/01/22 10:02:33;;;;;;;;;;;;;;;;;;4994407;28;19956;-72
2023/01/22 10:04:59;;;;;;;;;;;;;;;;;;4993113;28;19957;-71
2023/01/22 10:07:25;;;;;;;;;;;;;;;;;;4994585;28;19952;-70
2023/01/22 10:09:51;;;;;;;;;;;;;;;;;;4994321;28;19951;-70
2023/01/22 10:12:17;;;;;;;;;;;;;;;;;;4994310;28;19953;-70
2023/01/22 10:14:43;;;;;;;;;;;;;;;;;;4994549;28;19944;-71
2023/01/22 10:17:09;;;;;;;;;;;;;;;;;;4994458;28;20060;-69
2023/01/22 10:19:35;;;;;;;;;;;;;;;;;;4994256;28;20002;-71
2023/01/22 10:22:00;;;;;;;;;;;;;;;;;;4994725;28;20395;-71
2023/01/22 10:24:28;;;;;;;;;;;;;;;;;;4994202;28;19952;-69
2023/01/22 10:26:53;;;;;;;;;;;;;;;;;;4994741;28;19953;-71
2023/01/22 10:29:19;;;;;;;;;;;;;;;;;;4994426;28;19946;-70
2023/01/22 10:31:45;;;;;;;;;;;;;;;;;;4994713;28;19963;-70
2023/01/22 10:34:11;;;;;;;;;;;;;;;;;;4994088;28;19948;-70
2023/01/22 10:36:37;;;;;;;;;;;;;;;;;;4994022;28;20340;-69
2023/01/22 10:39:03;;;;;;;;;;;;;;;;;;4994132;28;19944;-70
2023/01/22 10:41:29;;;;;;;;;;;;;;;;;;4994372;28;19947;-71
2023/01/22 10:43:55;;;;;;;;;;;;;;;;;;4994000;28;20043;-71
2023/01/22 10:46:21;;;;;;;;;;;;;;;;;;4994262;28;19988;-69
2023/01/22 10:48:47;;;;;;;;;;;;;;;;;;4994041;28;19997;-70
2023/01/22 10:51:13;;;;;;;;;;;;;;;;;;4994218;28;20006;-69
2023/01/22 10:53:39;;;;;;;;;;;;;;;;;;4993887;28;19955;-71
2023/01/22 10:56:05;;;;;;;;;;;;;;;;;;4993904;28;19965;-70
2023/01/22 10:58:30;;;;;;;;;;;;;;;;;;4994220;28;19952;-70
2023/01/22 11:00:56;;;;;;;;;;;;;;;;;;4994225;28;19952;-69
2023/01/22 11:03:22;;;;;;;;;;;;;;;;;;4993915;28;19952;-70
2023/01/22 11:05:48;;;;;;;;;;;;;;;;;;4994171;28;19946;-69
2023/01/22 11:08:14;;;;;;;;;;;;;;;;;;4993903;28;19952;-70
2023/01/22 11:10:40;;;;;;;;;;;;;;;;;;4997716;28;20037;-70
2023/01/22 11:13:06;;;;;;;;;;;;;;;;;;4997394;28;19954;-70
2023/01/22 11:15:32;;;;;;;;;;;;;;;;;;4997551;28;19971;-70
2023/01/22 11:17:58;;;;;;;;;;;;;;;;;;4997344;28;19991;-69
2023/01/22 11:20:23;;;;;;;;;;;;;;;;;;4997579;28;19954;-71
2023/01/22 11:22:49;;;;;;;;;;;;;;;;;;4997254;28;19952;-70
2023/01/22 11:25:15;;;;;;;;;;;;;;;;;;4997188;28;19998;-70
2023/01/22 11:27:41;;;;;;;;;;;;;;;;;;4997692;28;19960;-69
2023/01/22 11:30:07;;;;;;;;;;;;;;;;;;4997120;28;19947;-72
2023/01/22 11:32:33;;;;;;;;;;;;;;;;;;4997036;28;20380;-69
2023/01/22 11:34:59;;;;;;;;;;;;;;;;;;4996874;28;20323;-70
2023/01/22 11:37:25;;;;;;;;;;;;;;;;;;4996938;28;19957;-69
2023/01/22 11:39:52;;;;;;;;;;;;;;;;;;4997460;28;19952;-70
2023/01/22 11:42:18;;;;;;;;;;;;;;;;;;4996824;28;20008;-69
2023/01/22 11:44:44;;;;;;;;;;;;;;;;;;4997092;28;19956;-70
2023/01/22 11:47:10;;;;;;;;;;;;;;;;;;4996675;28;20061;-70
2023/01/22 11:49:36;;;;;;;;;;;;;;;;;;4996546;28;20042;-69
2023/01/22 11:52:02;;;;;;;;;;;;;;;;;;4996947;28;19955;-70
2023/01/22 11:54:28;;;;;;;;;;;;;;;;;;4996933;28;20001;-68
2023/01/22 11:56:54;;;;;;;;;;;;;;;;;;4997058;28;20021;-70
2023/01/22 11:59:19;;;;;;;;;;;;;;;;;;4996550;28;20418;-70
2023/01/22 12:01:45;;;;;;;;;;;;;;;;;;4996535;28;19957;-70
2023/01/22 12:04:11;;;;;;;;;;;;;;;;;;4996472;28;19960;-71
2023/01/22 12:06:37;;;;;;;;;;;;;;;;;;4996964;28;19944;-69
2023/01/22 12:09:03;;;;;;;;;;;;;;;;;;4996659;28;19970;-70
2023/01/22 12:11:29;;;;;;;;;;;;;;;;;;4996332;28;20388;-70
2023/01/22 12:13:55;;;;;;;;;;;;;;;;;;4996307;28;19952;-70
2023/01/22 12:16:21;;;;;;;;;;;;;;;;;;4996449;28;19970;-70
2023/01/22 12:18:46;;;;;;;;;;;;;;;;;;4996200;28;19948;-70
2023/01/22 12:21:12;;;;;;;;;;;;;;;;;;4996299;28;19955;-71
2023/01/22 12:23:38;;;;;;;;;;;;;;;;;;4996110;28;19953;-70
2023/01/22 12:26:04;;;;;;;;;;;;;;;;;;4996613;28;20408;-70
2023/01/22 12:28:30;;;;;;;;;;;;;;;;;;4995971;28;20050;-69
2023/01/22 12:30:56;;;;;;;;;;;;;;;;;;4995978;28;19955;-70
2023/01/22 12:33:22;;;;;;;;;;;;;;;;;;4996164;28;19950;-71
2023/01/22 12:35:48;;;;;;;;;;;;;;;;;;4996046;28;19966;-70
2023/01/22 12:38:14;;;;;;;;;;;;;;;;;;4996364;28;20044;-70
2023/01/22 12:40:40;;;;;;;;;;;;;;;;;;4996016;28;19974;-69
2023/01/22 12:43:06;;;;;;;;;;;;;;;;;;4996014;28;19962;-70
2023/01/22 12:45:32;;;;;;;;;;;;;;;;;;4995692;28;19953;-70
2023/01/22 12:47:57;;;;;;;;;;;;;;;;;;4995585;28;19969;-69
2023/01/22 12:50:23;;;;;;;;;;;;;;;;;;4995523;28;20393;-71
2023/01/22 12:52:49;;;;;;;;;;;;;;;;;;4995538;28;20458;-71
2023/01/22 12:55:15;;;;;;;;;;;;;;;;;;4995712;28;19967;-70
2023/01/22 12:57:41;;;;;;;;;;;;;;;;;;4995448;28;20493;-70
2023/01/22 13:00:07;;;;;;;;;;;;;;;;;;4995403;28;19959;-68
2023/01/22 13:02:36;;;;;;;;;;;;;;;;;;4995621;28;20359;-70
2023/01/22 13:05:02;;;;;;;;;;;;;;;;;;4995613;28;19952;-69
2023/01/22 13:07:28;;;;;;;;;;;;;;;;;;4995845;28;19960;-71
2023/01/22 13:09:54;;;;;;;;;;;;;;;;;;4995222;28;19951;-70
2023/01/22 13:12:20;;;;;;;;;;;;;;;;;;4995744;28;20000;-71
2023/01/22 13:14:46;;;;;;;;;;;;;;;;;;4995137;28;19958;-71
2023/01/22 13:17:12;;;;;;;;;;;;;;;;;;4993762;28;19978;-70
2023/01/22 13:19:37;;;;;;;;;;;;;;;;;;4995580;28;20110;-70
2023/01/22 13:22:03;;;;;;;;;;;;;;;;;;4995031;28;19959;-71
2023/01/22 13:24:29;;;;;;;;;;;;;;;;;;4994988;28;20412;-70
2023/01/22 13:26:55;;;;;;;;;;;;;;;;;;4995219;28;20042;-70
2023/01/22 13:29:22;;;;;;;;;;;;;;;;;;4994864;28;20047;-69
2023/01/22 13:31:48;;;;;;;;;;;;;;;;;;4994669;28;19951;-69
2023/01/22 13:34:14;;;;;;;;;;;;;;;;;;4994828;28;20400;-70
2023/01/22 13:36:40;;;;;;;;;;;;;;;;;;4995031;28;19969;-71
2023/01/22 13:39:06;;;;;;;;;;;;;;;;;;4994722;28;19956;-71
2023/01/22 13:41:32;;;;;;;;;;;;;;;;;;4994988;28;19975;-70
2023/01/22 13:43:58;;;;;;;;;;;;;;;;;;4994708;28;20007;-70
2023/01/22 13:46:25;;;;;;;;;;;;;;;;;;4994691;28;20318;-70
2023/01/22 13:48:51;;;;;;;;;;;;;;;;;;4994326;28;19976;-69
2023/01/22 13:51:17;;;;;;;;;;;;;;;;;;4994867;28;19952;-70
2023/01/22 13:53:43;;;;;;;;;;;;;;;;;;4994801;28;19958;-70
2023/01/22 13:56:09;;;;;;;;;;;;;;;;;;4994399;28;19966;-71
2023/01/22 13:58:35;;;;;;;;;;;;;;;;;;4994740;28;20420;-70
2023/01/22 14:01:01;;;;;;;;;;;;;;;;;;4994427;28;19947;-69
2023/01/22 14:03:28;;;;;;;;;;;;;;;;;;4994914;28;19995;-71
2023/01/22 14:05:54;;;;;;;;;;;;;;;;;;4994389;28;19987;-70
2023/01/22 14:08:20;;;;;;;;;;;;;;;;;;4994673;28;19960;-69
2023/01/22 14:10:46;;;;;;;;;;;;;;;;;;4994323;28;19989;-71
2023/01/22 14:13:12;;;;;;;;;;;;;;;;;;4994328;28;19960;-69
2023/01/22 14:15:38;;;;;;;;;;;;;;;;;;4994409;28;20023;-71
2023/01/22 14:18:04;;;;;;;;;;;;;;;;;;4994281;28;19950;-70
2023/01/22 14:20:30;;;;;;;;;;;;;;;;;;4994270;28;20468;-70
2023/01/22 14:22:56;;;;;;;;;;;;;;;;;;4994809;28;20294;-71
2023/01/22 14:25:22;;;;;;;;;;;;;;;;;;4994473;28;20395;-71
2023/01/22 14:27:48;;;;;;;;;;;;;;;;;;4994228;28;19960;-70
2023/01/22 14:30:13;;;;;;;;;;;;;;;;;;4992901;28;19954;-72
2023/01/22 14:32:40;;;;;;;;;;;;;;;;;;4994192;28;19945;-70
2023/01/22 14:35:06;;;;;;;;;;;;;;;;;;4994095;28;19957;-70
2023/01/22 14:37:31;;;;;;;;;;;;;;;;;;4994411;28;19956;-69
2023/01/22 14:39:57;;;;;;;;;;;;;;;;;;4994095;28;20386;-71
2023/01/22 14:42:23;;;;;;;;;;;;;;;;;;4994103;28;19960;-70
2023/01/22 14:44:49;;;;;;;;;;;;;;;;;;4996622;28;19960;-70
2023/01/22 14:47:15;;;;;;;;;;;;;;;;;;4998083;28;19963;-70
2023/01/22 14:49:41;;;;;;;;;;;;;;;;;;4997842;28;19988;-69
2023/01/22 14:52:07;;;;;;;;;;;;;;;;;;4997794;28;20007;-70
2023/01/22 14:54:33;;;;;;;;;;;;;;;;;;4998042;28;20297;-70
2023/01/22 14:57:02;;;;;;;;;;;;;;;;;;4997682;28;20121;-71
2023/01/22 14:59:28;;;;;;;;;;;;;;;;;;4997908;28;20006;-71
2023/01/22 15:01:53;;;;;;;;;;;;;;;;;;4997653;28;20040;-71
2023/01/22 15:04:19;;;;;;;;;;;;;;;;;;4997634;28;19951;-70
2023/01/22 15:06:45;;;;;;;;;;;;;;;;;;4997827;28;19945;-70
2023/01/22 15:09:11;;;;;;;;;;;;;;;;;;4997745;28;20047;-69
2023/01/22 15:11:37;;;;;;;;;;;;;;;;;;4997434;28;19946;-71
2023/01/22 15:14:04;;;;;;;;;;;;;;;;;;4997960;28;19952;-70
2023/01/22 15:16:30;;;;;;;;;;;;;;;;;;4997306;28;19969;-70
2023/01/22 15:18:55;;;;;;;;;;;;;;;;;;4997304;28;20380;-69
2023/01/22 15:21:21;;;;;;;;;;;;;;;;;;4997301;28;19953;-70
2023/01/22 15:23:48;;;;;;;;;;;;;;;;;;4997481;28;19953;-71
2023/01/22 15:26:14;;;;;;;;;;;;;;;;;;4997158;28;19960;-69
2023/01/22 15:28:40;;;;;;;;;;;;;;;;;;4997371;28;19951;-69
2023/01/22 15:31:08;;;;;;;;;;;;;;;;;;4997122;28;19964;-70
2023/01/22 15:33:34;;;;;;;;;;;;;;;;;;4997645;28;19964;-71
2023/01/22 15:36:00;;;;;;;;;;;;;;;;;;4996954;28;20348;-69
2023/01/22 15:38:26;;;;;;;;;;;;;;;;;;4996946;28;19956;-70
2023/01/22 15:40:52;;;;;;;;;;;;;;;;;;4997225;28;19948;-70
2023/01/22 15:43:18;;;;;;;;;;;;;;;;;;4996903;28;19958;-70
2023/01/22 15:45:44;;;;;;;;;;;;;;;;;;4996843;28;20369;-71
2023/01/22 15:48:12;;;;;;;;;;;;;;;;;;4996698;28;19964;-71
2023/01/22 15:50:38;;;;;;;;;;;;;;;;;;4996590;28;20468;-70
2023/01/22 15:53:04;;;;;;;;;;;;;;;;;;4996665;28;19979;-69
2023/01/22 15:55:30;;;;;;;;;;;;;;;;;;4996668;28;19971;-71
2023/01/22 15:57:58;;;;;;;;;;;;;;;;;;4996884;28;20004;-70
2023/01/22 16:00:26;;;;;;;;;;;;;;;;;;4996576;28;20425;-71
2023/01/22 16:02:52;;;;;;;;;;;;;;;;;;4996484;28;19951;-71
2023/01/22 16:05:20;;;;;;;;;;;;;;;;;;4996449;28;20318;-71
2023/01/22 16:07:46;;;;;;;;;;;;;;;;;;4996697;28;19954;-70
2023/01/22 16:10:11;;;;;;;;;;;;;;;;;;4996367;28;19949;-70
2023/01/22 16:12:37;;;;;;;;;;;;;;;;;;4996587;28;19946;-71
2023/01/22 16:15:03;;;;;;;;;;;;;;;;;;4996175;28;19949;-70
2023/01/22 16:17:29;;;;;;;;;;;;;;;;;;4996484;28;19946;-70
2023/01/22 16:19:55;;;;;;;;;;;;;;;;;;4996182;28;19944;-69
2023/01/22 16:22:21;;;;;;;;;;;;;;;;;;4996171;28;19973;-71
2023/01/22 16:24:47;;;;;;;;;;;;;;;;;;4996410;28;19947;-70
2023/01/22 16:27:13;;;;;;;;;;;;;;;;;;4996101;28;20414;-70
2023/01/22 16:29:39;;;;;;;;;;;;;;;;;;4996313;28;19952;-69
2023/01/22 16:32:05;;;;;;;;;;;;;;;;;;4995964;28;20291;-69
2023/01/22 16:34:31;;;;;;;;;;;;;;;;;;4996515;28;19957;-71
2023/01/22 16:36:58;;;;;;;;;;;;;;;;;;4995823;28;19977;-70
2023/01/22 16:39:27;;;;;;;;;;;;;;;;;;4994578;28;19955;-70
2023/01/22 16:41:53;;;;;;;;;;;;;;;;;;4995807;28;19957;-69
2023/01/22 16:44:19;;;;;;;;;;;;;;;;;;4995978;28;19948;-70
2023/01/22 16:46:45;;;;;;;;;;;;;;;;;;4995896;28;20313;-70
2023/01/22 16:49:12;;;;;;;;;;;;;;;;;;4995483;28;19978;-69
2023/01/22 16:51:38;;;;;;;;;;;;;;;;;;4996183;28;20020;-70